sensor_id;sensor_type;location;lat;lon;timestamp;P1;durP1;ratioP1;P2;durP2;ratioP2
75005;SDS011;63553;51.814;4.600;2023-05-14T00:02:12;16.85;;;10.85;;
75005;SDS011;63553;51.814;4.600;2023-05-14T00:04:37;16.30;;;10.38;;
75005;SDS011;63553;51.814;4.600;2023-05-14T00:07:02;14.13;;;9.90;;
75005;SDS011;63553;51.814;4.600;2023-05-14T00:09:28;12.25;;;9.82;;
75005;SDS011;63553;51.814;4.600;2023-05-14T00:11:54;16.33;;;10.70;;
75005;SDS011;63553;51.814;4.600;2023-05-14T00:14:20;17.05;;;10.18;;
75005;SDS011;63553;51.814;4.600;2023-05-14T00:16:45;13.27;;;9.40;;
75005;SDS011;63553;51.814;4.600;2023-05-14T00:19:11;19.45;;;11.00;;
75005;SDS011;63553;51.814;4.600;2023-05-14T00:21:36;16.80;;;10.63;;
75005;SDS011;63553;51.814;4.600;2023-05-14T00:24:02;16.77;;;9.73;;
75005;SDS011;63553;51.814;4.600;2023-05-14T00:26:27;18.92;;;11.25;;
75005;SDS011;63553;51.814;4.600;2023-05-14T00:28:52;17.77;;;10.80;;
75005;SDS011;63553;51.814;4.600;2023-05-14T00:31:18;14.03;;;9.40;;
75005;SDS011;63553;51.814;4.600;2023-05-14T00:33:43;12.40;;;8.65;;
75005;SDS011;63553;51.814;4.600;2023-05-14T00:36:08;19.87;;;11.23;;
75005;SDS011;63553;51.814;4.600;2023-05-14T00:38:34;14.70;;;10.17;;
75005;SDS011;63553;51.814;4.600;2023-05-14T00:40:59;17.13;;;10.53;;
75005;SDS011;63553;51.814;4.600;2023-05-14T00:43:24;16.17;;;10.75;;
75005;SDS011;63553;51.814;4.600;2023-05-14T00:45:50;13.27;;;9.50;;
75005;SDS011;63553;51.814;4.600;2023-05-14T00:48:20;16.17;;;10.90;;
75005;SDS011;63553;51.814;4.600;2023-05-14T00:50:46;16.20;;;10.35;;
75005;SDS011;63553;51.814;4.600;2023-05-14T00:53:13;19.58;;;11.00;;
75005;SDS011;63553;51.814;4.600;2023-05-14T00:55:39;15.07;;;10.38;;
75005;SDS011;63553;51.814;4.600;2023-05-14T00:58:06;17.90;;;10.65;;
75005;SDS011;63553;51.814;4.600;2023-05-14T01:00:34;14.05;;;10.40;;
75005;SDS011;63553;51.814;4.600;2023-05-14T01:02:59;17.00;;;10.05;;
75005;SDS011;63553;51.814;4.600;2023-05-14T01:05:28;20.98;;;10.55;;
75005;SDS011;63553;51.814;4.600;2023-05-14T01:16:27;16.73;;;10.65;;
75005;SDS011;63553;51.814;4.600;2023-05-14T01:18:55;13.75;;;9.23;;
75005;SDS011;63553;51.814;4.600;2023-05-14T01:21:37;20.25;;;10.52;;
75005;SDS011;63553;51.814;4.600;2023-05-14T01:24:07;15.75;;;9.50;;
75005;SDS011;63553;51.814;4.600;2023-05-14T01:26:33;17.48;;;10.20;;
75005;SDS011;63553;51.814;4.600;2023-05-14T01:29:00;13.68;;;8.88;;
75005;SDS011;63553;51.814;4.600;2023-05-14T01:31:39;15.23;;;9.95;;
75005;SDS011;63553;51.814;4.600;2023-05-14T01:34:08;15.88;;;9.88;;
75005;SDS011;63553;51.814;4.600;2023-05-14T01:36:36;18.45;;;9.95;;
75005;SDS011;63553;51.814;4.600;2023-05-14T01:39:03;15.05;;;9.25;;
75005;SDS011;63553;51.814;4.600;2023-05-14T01:41:33;16.35;;;9.55;;
75005;SDS011;63553;51.814;4.600;2023-05-14T01:44:00;15.85;;;9.63;;
75005;SDS011;63553;51.814;4.600;2023-05-14T01:46:29;16.27;;;10.32;;
75005;SDS011;63553;51.814;4.600;2023-05-14T01:48:55;16.92;;;9.25;;
75005;SDS011;63553;51.814;4.600;2023-05-14T01:51:21;19.33;;;10.57;;
75005;SDS011;63553;51.814;4.600;2023-05-14T01:53:46;14.93;;;9.00;;
75005;SDS011;63553;51.814;4.600;2023-05-14T01:56:11;16.73;;;10.47;;
75005;SDS011;63553;51.814;4.600;2023-05-14T01:58:37;15.47;;;9.73;;
75005;SDS011;63553;51.814;4.600;2023-05-14T02:01:02;14.70;;;9.37;;
75005;SDS011;63553;51.814;4.600;2023-05-14T02:03:27;14.27;;;9.77;;
75005;SDS011;63553;51.814;4.600;2023-05-14T02:05:53;14.17;;;9.20;;
75005;SDS011;63553;51.814;4.600;2023-05-14T02:08:18;14.67;;;9.80;;
75005;SDS011;63553;51.814;4.600;2023-05-14T02:10:43;14.17;;;8.73;;
75005;SDS011;63553;51.814;4.600;2023-05-14T02:13:09;17.37;;;10.63;;
75005;SDS011;63553;51.814;4.600;2023-05-14T02:15:34;17.20;;;9.37;;
75005;SDS011;63553;51.814;4.600;2023-05-14T02:17:59;17.17;;;11.10;;
75005;SDS011;63553;51.814;4.600;2023-05-14T02:20:24;20.20;;;10.00;;
75005;SDS011;63553;51.814;4.600;2023-05-14T02:22:50;16.20;;;10.33;;
75005;SDS011;63553;51.814;4.600;2023-05-14T02:25:15;19.05;;;10.55;;
75005;SDS011;63553;51.814;4.600;2023-05-14T02:27:41;16.02;;;10.30;;
75005;SDS011;63553;51.814;4.600;2023-05-14T02:30:07;21.83;;;10.70;;
75005;SDS011;63553;51.814;4.600;2023-05-14T02:32:33;17.80;;;11.13;;
75005;SDS011;63553;51.814;4.600;2023-05-14T02:34:58;18.92;;;10.82;;
75005;SDS011;63553;51.814;4.600;2023-05-14T02:37:23;19.13;;;10.63;;
75005;SDS011;63553;51.814;4.600;2023-05-14T02:39:49;17.47;;;11.27;;
75005;SDS011;63553;51.814;4.600;2023-05-14T02:42:14;15.85;;;10.45;;
75005;SDS011;63553;51.814;4.600;2023-05-14T02:44:39;17.53;;;11.00;;
75005;SDS011;63553;51.814;4.600;2023-05-14T02:47:05;16.33;;;11.23;;
75005;SDS011;63553;51.814;4.600;2023-05-14T02:49:30;18.50;;;10.45;;
75005;SDS011;63553;51.814;4.600;2023-05-14T02:51:55;14.70;;;9.67;;
75005;SDS011;63553;51.814;4.600;2023-05-14T02:54:21;18.15;;;11.25;;
75005;SDS011;63553;51.814;4.600;2023-05-14T02:56:46;17.70;;;10.30;;
75005;SDS011;63553;51.814;4.600;2023-05-14T02:59:12;15.75;;;10.02;;
75005;SDS011;63553;51.814;4.600;2023-05-14T03:01:37;16.85;;;8.82;;
75005;SDS011;63553;51.814;4.600;2023-05-14T03:04:03;13.38;;;9.40;;
75005;SDS011;63553;51.814;4.600;2023-05-14T03:06:29;24.77;;;12.00;;
75005;SDS011;63553;51.814;4.600;2023-05-14T03:08:55;15.43;;;10.48;;
75005;SDS011;63553;51.814;4.600;2023-05-14T03:11:20;18.80;;;10.63;;
75005;SDS011;63553;51.814;4.600;2023-05-14T03:13:46;14.70;;;9.43;;
75005;SDS011;63553;51.814;4.600;2023-05-14T03:16:11;22.20;;;10.90;;
75005;SDS011;63553;51.814;4.600;2023-05-14T03:18:37;18.90;;;10.18;;
75005;SDS011;63553;51.814;4.600;2023-05-14T03:21:02;14.63;;;9.23;;
75005;SDS011;63553;51.814;4.600;2023-05-14T03:23:27;16.90;;;10.40;;
75005;SDS011;63553;51.814;4.600;2023-05-14T03:25:55;20.02;;;10.68;;
75005;SDS011;63553;51.814;4.600;2023-05-14T03:28:21;17.55;;;10.48;;
75005;SDS011;63553;51.814;4.600;2023-05-14T03:30:46;19.55;;;10.85;;
75005;SDS011;63553;51.814;4.600;2023-05-14T03:33:12;18.17;;;10.77;;
75005;SDS011;63553;51.814;4.600;2023-05-14T03:35:37;18.48;;;10.35;;
75005;SDS011;63553;51.814;4.600;2023-05-14T03:38:03;17.25;;;10.05;;
75005;SDS011;63553;51.814;4.600;2023-05-14T03:40:28;19.37;;;10.57;;
75005;SDS011;63553;51.814;4.600;2023-05-14T03:42:54;19.95;;;10.77;;
75005;SDS011;63553;51.814;4.600;2023-05-14T03:45:20;16.00;;;9.98;;
75005;SDS011;63553;51.814;4.600;2023-05-14T03:47:45;19.33;;;10.20;;
75005;SDS011;63553;51.814;4.600;2023-05-14T03:50:10;16.00;;;9.90;;
75005;SDS011;63553;51.814;4.600;2023-05-14T03:52:35;14.27;;;9.80;;
75005;SDS011;63553;51.814;4.600;2023-05-14T03:55:01;14.63;;;9.53;;
75005;SDS011;63553;51.814;4.600;2023-05-14T03:57:27;15.07;;;9.95;;
75005;SDS011;63553;51.814;4.600;2023-05-14T03:59:52;17.90;;;10.23;;
75005;SDS011;63553;51.814;4.600;2023-05-14T04:02:17;16.63;;;9.63;;
75005;SDS011;63553;51.814;4.600;2023-05-14T04:04:43;14.43;;;9.27;;
75005;SDS011;63553;51.814;4.600;2023-05-14T04:07:08;19.87;;;10.33;;
75005;SDS011;63553;51.814;4.600;2023-05-14T04:09:33;16.63;;;10.33;;
75005;SDS011;63553;51.814;4.600;2023-05-14T04:11:59;21.33;;;10.10;;
75005;SDS011;63553;51.814;4.600;2023-05-14T04:14:24;14.82;;;9.85;;
75005;SDS011;63553;51.814;4.600;2023-05-14T04:16:50;17.38;;;9.75;;
75005;SDS011;63553;51.814;4.600;2023-05-14T04:19:15;17.57;;;9.67;;
75005;SDS011;63553;51.814;4.600;2023-05-14T04:21:40;17.33;;;10.63;;
75005;SDS011;63553;51.814;4.600;2023-05-14T04:24:06;14.67;;;9.53;;
75005;SDS011;63553;51.814;4.600;2023-05-14T04:26:31;16.08;;;9.02;;
75005;SDS011;63553;51.814;4.600;2023-05-14T04:28:57;17.10;;;10.43;;
75005;SDS011;63553;51.814;4.600;2023-05-14T04:31:26;14.20;;;9.63;;
75005;SDS011;63553;51.814;4.600;2023-05-14T04:33:52;21.00;;;10.57;;
75005;SDS011;63553;51.814;4.600;2023-05-14T04:36:17;15.83;;;10.10;;
75005;SDS011;63553;51.814;4.600;2023-05-14T04:38:42;20.03;;;10.57;;
75005;SDS011;63553;51.814;4.600;2023-05-14T04:41:07;20.23;;;9.93;;
75005;SDS011;63553;51.814;4.600;2023-05-14T04:43:33;18.90;;;9.97;;
75005;SDS011;63553;51.814;4.600;2023-05-14T04:45:58;15.40;;;7.63;;
75005;SDS011;63553;51.814;4.600;2023-05-14T04:48:23;11.60;;;7.10;;
75005;SDS011;63553;51.814;4.600;2023-05-14T04:50:49;6.20;;;5.30;;
75005;SDS011;63553;51.814;4.600;2023-05-14T04:53:14;11.85;;;6.53;;
75005;SDS011;63553;51.814;4.600;2023-05-14T04:55:40;6.13;;;4.80;;
75005;SDS011;63553;51.814;4.600;2023-05-14T04:58:05;5.67;;;5.03;;
75005;SDS011;63553;51.814;4.600;2023-05-14T05:00:30;7.88;;;5.85;;
75005;SDS011;63553;51.814;4.600;2023-05-14T05:02:57;9.15;;;6.63;;
75005;SDS011;63553;51.814;4.600;2023-05-14T05:05:22;10.90;;;6.23;;
75005;SDS011;63553;51.814;4.600;2023-05-14T05:07:48;11.00;;;7.40;;
75005;SDS011;63553;51.814;4.600;2023-05-14T05:10:13;11.50;;;7.25;;
75005;SDS011;63553;51.814;4.600;2023-05-14T05:12:38;8.85;;;6.43;;
75005;SDS011;63553;51.814;4.600;2023-05-14T05:15:05;10.23;;;6.18;;
75005;SDS011;63553;51.814;4.600;2023-05-14T05:17:31;10.02;;;5.85;;
75005;SDS011;63553;51.814;4.600;2023-05-14T05:19:56;10.50;;;7.10;;
75005;SDS011;63553;51.814;4.600;2023-05-14T05:22:22;8.50;;;6.20;;
75005;SDS011;63553;51.814;4.600;2023-05-14T05:24:48;9.13;;;5.95;;
75005;SDS011;63553;51.814;4.600;2023-05-14T05:27:13;9.27;;;5.72;;
75005;SDS011;63553;51.814;4.600;2023-05-14T05:29:38;8.23;;;6.17;;
75005;SDS011;63553;51.814;4.600;2023-05-14T05:32:04;9.70;;;7.47;;
75005;SDS011;63553;51.814;4.600;2023-05-14T05:34:30;10.85;;;7.18;;
75005;SDS011;63553;51.814;4.600;2023-05-14T05:36:56;9.35;;;6.75;;
75005;SDS011;63553;51.814;4.600;2023-05-14T05:39:21;6.97;;;5.20;;
75005;SDS011;63553;51.814;4.600;2023-05-14T05:41:46;9.20;;;5.32;;
75005;SDS011;63553;51.814;4.600;2023-05-14T05:44:12;10.43;;;7.07;;
75005;SDS011;63553;51.814;4.600;2023-05-14T05:46:37;8.43;;;6.27;;
75005;SDS011;63553;51.814;4.600;2023-05-14T05:49:02;8.60;;;5.90;;
75005;SDS011;63553;51.814;4.600;2023-05-14T05:51:28;8.47;;;6.73;;
75005;SDS011;63553;51.814;4.600;2023-05-14T05:53:54;11.00;;;6.78;;
75005;SDS011;63553;51.814;4.600;2023-05-14T05:56:19;10.80;;;7.25;;
75005;SDS011;63553;51.814;4.600;2023-05-14T05:58:46;9.60;;;6.75;;
75005;SDS011;63553;51.814;4.600;2023-05-14T06:01:11;9.52;;;6.90;;
75005;SDS011;63553;51.814;4.600;2023-05-14T06:03:36;7.70;;;4.70;;
75005;SDS011;63553;51.814;4.600;2023-05-14T06:06:01;7.93;;;5.10;;
75005;SDS011;63553;51.814;4.600;2023-05-14T06:08:27;13.45;;;5.25;;
75005;SDS011;63553;51.814;4.600;2023-05-14T06:10:52;8.70;;;6.13;;
75005;SDS011;63553;51.814;4.600;2023-05-14T06:13:18;7.95;;;5.72;;
75005;SDS011;63553;51.814;4.600;2023-05-14T06:15:43;7.30;;;5.97;;
75005;SDS011;63553;51.814;4.600;2023-05-14T06:18:08;9.30;;;6.50;;
75005;SDS011;63553;51.814;4.600;2023-05-14T06:20:34;8.90;;;5.73;;
75005;SDS011;63553;51.814;4.600;2023-05-14T06:22:59;6.90;;;5.63;;
75005;SDS011;63553;51.814;4.600;2023-05-14T06:25:24;10.88;;;6.38;;
75005;SDS011;63553;51.814;4.600;2023-05-14T06:27:50;11.05;;;6.18;;
75005;SDS011;63553;51.814;4.600;2023-05-14T06:30:15;8.02;;;5.85;;
75005;SDS011;63553;51.814;4.600;2023-05-14T06:32:41;8.77;;;6.20;;
75005;SDS011;63553;51.814;4.600;2023-05-14T06:35:06;8.63;;;6.05;;
75005;SDS011;63553;51.814;4.600;2023-05-14T06:37:32;14.63;;;8.70;;
75005;SDS011;63553;51.814;4.600;2023-05-14T06:39:57;12.27;;;6.28;;
75005;SDS011;63553;51.814;4.600;2023-05-14T06:42:22;9.13;;;6.37;;
75005;SDS011;63553;51.814;4.600;2023-05-14T06:44:48;7.63;;;6.10;;
75005;SDS011;63553;51.814;4.600;2023-05-14T06:47:13;10.60;;;7.00;;
75005;SDS011;63553;51.814;4.600;2023-05-14T06:49:38;8.43;;;5.72;;
75005;SDS011;63553;51.814;4.600;2023-05-14T06:52:04;8.93;;;6.38;;
75005;SDS011;63553;51.814;4.600;2023-05-14T06:54:30;10.60;;;7.43;;
75005;SDS011;63553;51.814;4.600;2023-05-14T06:56:55;12.38;;;8.02;;
75005;SDS011;63553;51.814;4.600;2023-05-14T06:59:21;12.75;;;7.40;;
75005;SDS011;63553;51.814;4.600;2023-05-14T07:01:46;8.53;;;7.00;;
75005;SDS011;63553;51.814;4.600;2023-05-14T07:04:11;10.60;;;7.00;;
75005;SDS011;63553;51.814;4.600;2023-05-14T07:06:37;12.03;;;7.17;;
75005;SDS011;63553;51.814;4.600;2023-05-14T07:09:02;13.65;;;8.38;;
75005;SDS011;63553;51.814;4.600;2023-05-14T07:11:28;11.43;;;7.40;;
75005;SDS011;63553;51.814;4.600;2023-05-14T07:13:53;8.77;;;6.82;;
75005;SDS011;63553;51.814;4.600;2023-05-14T07:16:18;12.80;;;7.93;;
75005;SDS011;63553;51.814;4.600;2023-05-14T07:18:44;11.57;;;7.90;;
75005;SDS011;63553;51.814;4.600;2023-05-14T07:21:10;10.88;;;7.78;;
75005;SDS011;63553;51.814;4.600;2023-05-14T07:23:35;10.68;;;7.38;;
75005;SDS011;63553;51.814;4.600;2023-05-14T07:26:04;12.35;;;7.30;;
75005;SDS011;63553;51.814;4.600;2023-05-14T07:28:30;13.70;;;8.13;;
75005;SDS011;63553;51.814;4.600;2023-05-14T07:30:56;16.83;;;9.20;;
75005;SDS011;63553;51.814;4.600;2023-05-14T07:33:21;10.80;;;7.07;;
75005;SDS011;63553;51.814;4.600;2023-05-14T07:35:47;16.10;;;10.93;;
75005;SDS011;63553;51.814;4.600;2023-05-14T07:38:12;16.70;;;10.35;;
75005;SDS011;63553;51.814;4.600;2023-05-14T07:40:38;13.13;;;8.98;;
75005;SDS011;63553;51.814;4.600;2023-05-14T07:43:03;17.88;;;8.30;;
75005;SDS011;63553;51.814;4.600;2023-05-14T07:45:29;14.73;;;10.48;;
75005;SDS011;63553;51.814;4.600;2023-05-14T07:47:54;16.38;;;9.43;;
75005;SDS011;63553;51.814;4.600;2023-05-14T07:50:20;12.98;;;8.30;;
75005;SDS011;63553;51.814;4.600;2023-05-14T07:52:45;19.00;;;10.85;;
75005;SDS011;63553;51.814;4.600;2023-05-14T07:55:11;13.53;;;9.63;;
75005;SDS011;63553;51.814;4.600;2023-05-14T07:57:37;13.43;;;10.73;;
75005;SDS011;63553;51.814;4.600;2023-05-14T08:00:03;19.08;;;10.05;;
75005;SDS011;63553;51.814;4.600;2023-05-14T08:02:31;13.77;;;10.60;;
75005;SDS011;63553;51.814;4.600;2023-05-14T08:04:57;18.08;;;12.02;;
75005;SDS011;63553;51.814;4.600;2023-05-14T08:07:22;14.07;;;10.30;;
75005;SDS011;63553;51.814;4.600;2023-05-14T08:09:47;18.25;;;11.45;;
75005;SDS011;63553;51.814;4.600;2023-05-14T08:12:13;15.43;;;10.55;;
75005;SDS011;63553;51.814;4.600;2023-05-14T08:14:38;13.75;;;9.65;;
75005;SDS011;63553;51.814;4.600;2023-05-14T08:17:04;13.88;;;9.43;;
75005;SDS011;63553;51.814;4.600;2023-05-14T08:19:30;20.10;;;9.43;;
75005;SDS011;63553;51.814;4.600;2023-05-14T08:21:55;15.73;;;11.38;;
75005;SDS011;63553;51.814;4.600;2023-05-14T08:24:21;17.13;;;11.93;;
75005;SDS011;63553;51.814;4.600;2023-05-14T08:26:46;16.63;;;10.88;;
75005;SDS011;63553;51.814;4.600;2023-05-14T08:29:11;12.73;;;10.40;;
75005;SDS011;63553;51.814;4.600;2023-05-14T08:31:37;12.80;;;9.90;;
75005;SDS011;63553;51.814;4.600;2023-05-14T08:34:02;11.67;;;8.23;;
75005;SDS011;63553;51.814;4.600;2023-05-14T08:36:27;15.00;;;9.13;;
75005;SDS011;63553;51.814;4.600;2023-05-14T08:38:53;12.50;;;9.57;;
75005;SDS011;63553;51.814;4.600;2023-05-14T08:41:18;13.37;;;8.97;;
75005;SDS011;63553;51.814;4.600;2023-05-14T08:43:46;16.63;;;10.55;;
75005;SDS011;63553;51.814;4.600;2023-05-14T08:46:25;16.33;;;9.60;;
75005;SDS011;63553;51.814;4.600;2023-05-14T08:49:07;12.38;;;9.93;;
75005;SDS011;63553;51.814;4.600;2023-05-14T08:51:40;14.10;;;9.60;;
75005;SDS011;63553;51.814;4.600;2023-05-14T08:54:07;11.18;;;8.57;;
75005;SDS011;63553;51.814;4.600;2023-05-14T08:56:33;11.40;;;8.10;;
75005;SDS011;63553;51.814;4.600;2023-05-14T08:58:59;10.13;;;8.80;;
75005;SDS011;63553;51.814;4.600;2023-05-14T09:01:25;12.00;;;8.27;;
75005;SDS011;63553;51.814;4.600;2023-05-14T09:03:51;13.05;;;9.80;;
75005;SDS011;63553;51.814;4.600;2023-05-14T09:06:18;11.23;;;9.52;;
75005;SDS011;63553;51.814;4.600;2023-05-14T09:08:45;11.10;;;8.90;;
75005;SDS011;63553;51.814;4.600;2023-05-14T09:11:10;13.88;;;10.77;;
75005;SDS011;63553;51.814;4.600;2023-05-14T09:13:37;12.60;;;9.63;;
75005;SDS011;63553;51.814;4.600;2023-05-14T09:16:02;14.93;;;10.40;;
75005;SDS011;63553;51.814;4.600;2023-05-14T09:18:28;13.73;;;10.23;;
75005;SDS011;63553;51.814;4.600;2023-05-14T09:20:53;14.57;;;11.00;;
75005;SDS011;63553;51.814;4.600;2023-05-14T09:23:19;10.43;;;9.07;;
75005;SDS011;63553;51.814;4.600;2023-05-14T09:25:44;12.43;;;9.85;;
75005;SDS011;63553;51.814;4.600;2023-05-14T09:28:15;13.63;;;9.07;;
75005;SDS011;63553;51.814;4.600;2023-05-14T09:30:41;10.38;;;8.23;;
75005;SDS011;63553;51.814;4.600;2023-05-14T09:33:06;11.48;;;8.52;;
75005;SDS011;63553;51.814;4.600;2023-05-14T09:35:34;8.32;;;7.53;;
75005;SDS011;63553;51.814;4.600;2023-05-14T09:38:04;8.35;;;7.53;;
75005;SDS011;63553;51.814;4.600;2023-05-14T09:40:29;8.40;;;7.45;;
75005;SDS011;63553;51.814;4.600;2023-05-14T09:42:54;12.90;;;8.90;;
75005;SDS011;63553;51.814;4.600;2023-05-14T09:45:20;11.23;;;8.73;;
75005;SDS011;63553;51.814;4.600;2023-05-14T09:47:45;11.57;;;9.00;;
75005;SDS011;63553;51.814;4.600;2023-05-14T09:50:11;9.10;;;8.13;;
75005;SDS011;63553;51.814;4.600;2023-05-14T09:52:37;10.75;;;8.57;;
75005;SDS011;63553;51.814;4.600;2023-05-14T09:55:02;11.48;;;7.97;;
75005;SDS011;63553;51.814;4.600;2023-05-14T09:57:28;8.32;;;7.45;;
75005;SDS011;63553;51.814;4.600;2023-05-14T09:59:53;13.18;;;8.63;;
75005;SDS011;63553;51.814;4.600;2023-05-14T10:02:26;9.03;;;8.13;;
75005;SDS011;63553;51.814;4.600;2023-05-14T10:05:01;11.80;;;7.53;;
75005;SDS011;63553;51.814;4.600;2023-05-14T10:07:32;8.57;;;7.25;;
75005;SDS011;63553;51.814;4.600;2023-05-14T10:10:02;12.93;;;8.77;;
75005;SDS011;63553;51.814;4.600;2023-05-14T10:12:33;9.80;;;7.30;;
75005;SDS011;63553;51.814;4.600;2023-05-14T10:15:03;7.88;;;6.72;;
75005;SDS011;63553;51.814;4.600;2023-05-14T10:17:53;10.65;;;8.38;;
75005;SDS011;63553;51.814;4.600;2023-05-14T10:20:22;10.75;;;7.25;;
75005;SDS011;63553;51.814;4.600;2023-05-14T10:22:50;9.18;;;6.07;;
75005;SDS011;63553;51.814;4.600;2023-05-14T10:25:15;7.45;;;6.30;;
75005;SDS011;63553;51.814;4.600;2023-05-14T10:27:41;7.80;;;6.22;;
75005;SDS011;63553;51.814;4.600;2023-05-14T10:30:10;8.30;;;6.25;;
75005;SDS011;63553;51.814;4.600;2023-05-14T10:32:37;9.95;;;6.00;;
75005;SDS011;63553;51.814;4.600;2023-05-14T10:35:14;8.27;;;6.20;;
75005;SDS011;63553;51.814;4.600;2023-05-14T10:37:40;7.28;;;5.75;;
75005;SDS011;63553;51.814;4.600;2023-05-14T10:40:07;9.32;;;7.28;;
75005;SDS011;63553;51.814;4.600;2023-05-14T10:42:34;8.05;;;5.70;;
75005;SDS011;63553;51.814;4.600;2023-05-14T10:45:07;7.68;;;6.13;;
75005;SDS011;63553;51.814;4.600;2023-05-14T10:47:35;7.70;;;5.60;;
75005;SDS011;63553;51.814;4.600;2023-05-14T10:50:02;8.38;;;5.50;;
75005;SDS011;63553;51.814;4.600;2023-05-14T10:52:30;6.35;;;5.65;;
75005;SDS011;63553;51.814;4.600;2023-05-14T10:54:56;7.32;;;6.07;;
75005;SDS011;63553;51.814;4.600;2023-05-14T10:57:24;6.53;;;5.80;;
75005;SDS011;63553;51.814;4.600;2023-05-14T10:59:52;9.18;;;5.80;;
75005;SDS011;63553;51.814;4.600;2023-05-14T11:02:40;7.10;;;5.35;;
75005;SDS011;63553;51.814;4.600;2023-05-14T11:05:09;6.40;;;5.25;;
75005;SDS011;63553;51.814;4.600;2023-05-14T11:07:38;6.53;;;5.93;;
75005;SDS011;63553;51.814;4.600;2023-05-14T11:10:06;9.45;;;5.45;;
75005;SDS011;63553;51.814;4.600;2023-05-14T11:12:33;8.35;;;6.30;;
75005;SDS011;63553;51.814;4.600;2023-05-14T11:15:01;14.27;;;7.55;;
75005;SDS011;63553;51.814;4.600;2023-05-14T11:17:28;8.63;;;6.50;;
75005;SDS011;63553;51.814;4.600;2023-05-14T11:19:55;8.25;;;5.68;;
75005;SDS011;63553;51.814;4.600;2023-05-14T11:22:22;7.85;;;5.53;;
75005;SDS011;63553;51.814;4.600;2023-05-14T11:24:48;9.38;;;5.45;;
75005;SDS011;63553;51.814;4.600;2023-05-14T11:27:14;7.10;;;5.88;;
75005;SDS011;63553;51.814;4.600;2023-05-14T11:29:49;12.40;;;7.20;;
75005;SDS011;63553;51.814;4.600;2023-05-14T11:32:15;9.63;;;5.97;;
75005;SDS011;63553;51.814;4.600;2023-05-14T11:34:41;8.95;;;5.68;;
75005;SDS011;63553;51.814;4.600;2023-05-14T11:37:11;6.35;;;5.22;;
75005;SDS011;63553;51.814;4.600;2023-05-14T11:39:38;5.90;;;5.22;;
75005;SDS011;63553;51.814;4.600;2023-05-14T11:42:10;11.73;;;6.65;;
75005;SDS011;63553;51.814;4.600;2023-05-14T11:44:37;6.53;;;5.65;;
75005;SDS011;63553;51.814;4.600;2023-05-14T11:47:03;9.13;;;4.65;;
75005;SDS011;63553;51.814;4.600;2023-05-14T11:49:29;8.25;;;5.28;;
75005;SDS011;63553;51.814;4.600;2023-05-14T11:52:02;8.20;;;5.32;;
75005;SDS011;63553;51.814;4.600;2023-05-14T11:54:30;7.60;;;5.35;;
75005;SDS011;63553;51.814;4.600;2023-05-14T11:56:57;6.68;;;4.80;;
75005;SDS011;63553;51.814;4.600;2023-05-14T11:59:27;10.73;;;6.93;;
75005;SDS011;63553;51.814;4.600;2023-05-14T12:01:55;12.05;;;5.97;;
75005;SDS011;63553;51.814;4.600;2023-05-14T12:04:21;6.00;;;4.88;;
75005;SDS011;63553;51.814;4.600;2023-05-14T12:06:50;9.82;;;5.28;;
75005;SDS011;63553;51.814;4.600;2023-05-14T12:09:17;7.65;;;5.78;;
75005;SDS011;63553;51.814;4.600;2023-05-14T12:11:44;10.77;;;5.30;;
75005;SDS011;63553;51.814;4.600;2023-05-14T12:14:14;6.07;;;5.47;;
75005;SDS011;63553;51.814;4.600;2023-05-14T12:16:44;16.38;;;6.30;;
75005;SDS011;63553;51.814;4.600;2023-05-14T12:19:10;11.57;;;6.13;;
75005;SDS011;63553;51.814;4.600;2023-05-14T12:21:38;8.50;;;5.60;;
75005;SDS011;63553;51.814;4.600;2023-05-14T12:24:07;6.88;;;5.53;;
75005;SDS011;63553;51.814;4.600;2023-05-14T12:26:34;7.80;;;4.93;;
75005;SDS011;63553;51.814;4.600;2023-05-14T12:29:00;10.77;;;6.40;;
75005;SDS011;63553;51.814;4.600;2023-05-14T12:31:27;9.32;;;5.45;;
75005;SDS011;63553;51.814;4.600;2023-05-14T12:33:53;7.80;;;5.15;;
75005;SDS011;63553;51.814;4.600;2023-05-14T12:36:19;7.38;;;4.82;;
75005;SDS011;63553;51.814;4.600;2023-05-14T12:38:44;8.35;;;5.05;;
75005;SDS011;63553;51.814;4.600;2023-05-14T12:41:09;8.23;;;5.03;;
75005;SDS011;63553;51.814;4.600;2023-05-14T12:43:35;9.33;;;4.90;;
75005;SDS011;63553;51.814;4.600;2023-05-14T12:46:00;7.73;;;4.70;;
75005;SDS011;63553;51.814;4.600;2023-05-14T12:48:25;9.13;;;4.87;;
75005;SDS011;63553;51.814;4.600;2023-05-14T12:50:51;11.50;;;4.93;;
75005;SDS011;63553;51.814;4.600;2023-05-14T12:53:16;8.18;;;5.50;;
75005;SDS011;63553;51.814;4.600;2023-05-14T12:55:41;6.97;;;6.13;;
75005;SDS011;63553;51.814;4.600;2023-05-14T12:58:07;5.90;;;4.70;;
75005;SDS011;63553;51.814;4.600;2023-05-14T13:00:32;8.43;;;4.83;;
75005;SDS011;63553;51.814;4.600;2023-05-14T13:02:57;7.20;;;4.70;;
75005;SDS011;63553;51.814;4.600;2023-05-14T13:05:23;7.37;;;5.53;;
75005;SDS011;63553;51.814;4.600;2023-05-14T13:07:50;8.17;;;4.90;;
75005;SDS011;63553;51.814;4.600;2023-05-14T13:10:16;5.68;;;4.72;;
75005;SDS011;63553;51.814;4.600;2023-05-14T13:12:42;10.15;;;5.78;;
75005;SDS011;63553;51.814;4.600;2023-05-14T13:15:08;4.88;;;4.38;;
75005;SDS011;63553;51.814;4.600;2023-05-14T13:17:34;6.13;;;4.50;;
75005;SDS011;63553;51.814;4.600;2023-05-14T13:20:00;5.32;;;4.72;;
75005;SDS011;63553;51.814;4.600;2023-05-14T13:22:25;6.95;;;5.03;;
75005;SDS011;63553;51.814;4.600;2023-05-14T13:24:50;6.17;;;4.23;;
75005;SDS011;63553;51.814;4.600;2023-05-14T13:27:16;9.97;;;4.77;;
75005;SDS011;63553;51.814;4.600;2023-05-14T13:29:41;6.93;;;4.87;;
75005;SDS011;63553;51.814;4.600;2023-05-14T13:32:06;8.13;;;4.63;;
75005;SDS011;63553;51.814;4.600;2023-05-14T13:34:32;7.22;;;4.45;;
75005;SDS011;63553;51.814;4.600;2023-05-14T13:36:58;6.33;;;4.53;;
75005;SDS011;63553;51.814;4.600;2023-05-14T13:39:23;8.13;;;4.75;;
75005;SDS011;63553;51.814;4.600;2023-05-14T13:41:51;8.23;;;4.60;;
75005;SDS011;63553;51.814;4.600;2023-05-14T13:44:16;4.95;;;4.45;;
75005;SDS011;63553;51.814;4.600;2023-05-14T13:46:42;6.82;;;4.68;;
75005;SDS011;63553;51.814;4.600;2023-05-14T13:49:07;11.80;;;5.18;;
75005;SDS011;63553;51.814;4.600;2023-05-14T13:51:33;7.50;;;4.50;;
75005;SDS011;63553;51.814;4.600;2023-05-14T13:53:58;6.15;;;4.78;;
75005;SDS011;63553;51.814;4.600;2023-05-14T13:56:24;6.30;;;4.40;;
75005;SDS011;63553;51.814;4.600;2023-05-14T13:58:49;8.70;;;4.93;;
75005;SDS011;63553;51.814;4.600;2023-05-14T14:01:15;9.98;;;4.93;;
75005;SDS011;63553;51.814;4.600;2023-05-14T14:03:40;7.77;;;4.97;;
75005;SDS011;63553;51.814;4.600;2023-05-14T14:06:05;6.90;;;4.23;;
75005;SDS011;63553;51.814;4.600;2023-05-14T14:08:31;9.98;;;4.80;;
75005;SDS011;63553;51.814;4.600;2023-05-14T14:10:56;8.20;;;4.80;;
75005;SDS011;63553;51.814;4.600;2023-05-14T14:13:22;7.20;;;4.77;;
75005;SDS011;63553;51.814;4.600;2023-05-14T14:15:47;8.97;;;4.30;;
75005;SDS011;63553;51.814;4.600;2023-05-14T14:18:13;8.77;;;4.57;;
75005;SDS011;63553;51.814;4.600;2023-05-14T14:20:38;6.50;;;4.40;;
75005;SDS011;63553;51.814;4.600;2023-05-14T14:23:03;7.73;;;4.30;;
75005;SDS011;63553;51.814;4.600;2023-05-14T14:25:29;10.68;;;4.78;;
75005;SDS011;63553;51.814;4.600;2023-05-14T14:27:54;6.68;;;4.65;;
75005;SDS011;63553;51.814;4.600;2023-05-14T14:30:19;7.22;;;4.32;;
75005;SDS011;63553;51.814;4.600;2023-05-14T14:32:45;13.93;;;4.10;;
75005;SDS011;63553;51.814;4.600;2023-05-14T14:35:12;7.07;;;4.40;;
75005;SDS011;63553;51.814;4.600;2023-05-14T14:37:39;8.40;;;4.20;;
75005;SDS011;63553;51.814;4.600;2023-05-14T14:40:07;5.07;;;4.18;;